sensor_id;sensor_type;location;lat;lon;timestamp;pressure;altitude;pressure_sealevel;temperature;humidity
23361;BME280;11852;50.082;18.554;2023-02-11T00:00:38;100241.0;;;-1.64;78.45
23361;BME280;11852;50.082;18.554;2023-02-11T00:01:43;100241.0;;;-1.61;78.33
23361;BME280;11852;50.082;18.554;2023-02-11T00:03:00;100239.5;;;-1.71;78.69
23361;BME280;11852;50.082;18.554;2023-02-11T00:04:07;100239.0;;;-1.71;78.68
23361;BME280;11852;50.082;18.554;2023-02-11T00:05:18;100239.5;;;-1.71;78.71
23361;BME280;11852;50.082;18.554;2023-02-11T00:06:26;100238.5;;;-1.71;78.69
23361;BME280;11852;50.082;18.554;2023-02-11T00:07:35;100236.0;;;-1.68;78.65
23361;BME280;11852;50.082;18.554;2023-02-11T00:08:45;100234.0;;;-1.77;78.89
23361;BME280;11852;50.082;18.554;2023-02-11T00:09:53;100231.0;;;-1.78;78.97
23361;BME280;11852;50.082;18.554;2023-02-11T00:11:00;100231.5;;;-1.79;79.03
23361;BME280;11852;50.082;18.554;2023-02-11T00:12:10;100232.5;;;-1.75;78.92
23361;BME280;11852;50.082;18.554;2023-02-11T00:13:18;100231.99;;;-1.89;79.43
23361;BME280;11852;50.082;18.554;2023-02-11T00:14:30;100230.0;;;-1.88;79.39
23361;BME280;11852;50.082;18.554;2023-02-11T00:15:55;100233.5;;;-1.87;79.33
23361;BME280;11852;50.082;18.554;2023-02-11T00:17:02;100231.0;;;-1.76;79.02
23361;BME280;11852;50.082;18.554;2023-02-11T00:18:11;100228.0;;;-1.82;79.23
23361;BME280;11852;50.082;18.554;2023-02-11T00:19:19;100232.49;;;-1.85;79.38
23361;BME280;11852;50.082;18.554;2023-02-11T00:20:29;100230.5;;;-1.87;79.38
23361;BME280;11852;50.082;18.554;2023-02-11T00:21:36;100226.5;;;-1.74;79.03
23361;BME280;11852;50.082;18.554;2023-02-11T00:22:57;100228.0;;;-1.74;79.02
23361;BME280;11852;50.082;18.554;2023-02-11T00:24:05;100227.5;;;-1.75;79.01
23361;BME280;11852;50.082;18.554;2023-02-11T00:25:12;100226.0;;;-1.86;79.35
23361;BME280;11852;50.082;18.554;2023-02-11T00:26:20;100228.5;;;-1.86;79.32
23361;BME280;11852;50.082;18.554;2023-02-11T00:27:46;100228.5;;;-1.89;79.4
23361;BME280;11852;50.082;18.554;2023-02-11T00:28:54;100228.5;;;-1.87;79.35
23361;BME280;11852;50.082;18.554;2023-02-11T00:30:07;100228.0;;;-1.89;79.45
23361;BME280;11852;50.082;18.554;2023-02-11T00:31:14;100230.0;;;-1.81;79.2
23361;BME280;11852;50.082;18.554;2023-02-11T00:32:24;100232.0;;;-1.69;78.82
23361;BME280;11852;50.082;18.554;2023-02-11T00:33:36;100233.5;;;-1.73;78.99
23361;BME280;11852;50.082;18.554;2023-02-11T00:34:44;100229.51;;;-1.77;79.1
23361;BME280;11852;50.082;18.554;2023-02-11T00:35:55;100229.5;;;-1.91;79.55
23361;BME280;11852;50.082;18.554;2023-02-11T00:37:02;100227.0;;;-1.85;79.28
23361;BME280;11852;50.082;18.554;2023-02-11T00:38:12;100230.5;;;-1.83;79.18
23361;BME280;11852;50.082;18.554;2023-02-11T00:39:19;100225.5;;;-1.86;79.3
23361;BME280;11852;50.082;18.554;2023-02-11T00:40:28;100225.0;;;-1.79;79.12
23361;BME280;11852;50.082;18.554;2023-02-11T00:41:36;100228.0;;;-1.83;79.18
23361;BME280;11852;50.082;18.554;2023-02-11T00:42:44;100226.5;;;-1.85;79.15
23361;BME280;11852;50.082;18.554;2023-02-11T00:43:55;100223.5;;;-1.84;79.15
23361;BME280;11852;50.082;18.554;2023-02-11T00:45:02;100222.0;;;-1.78;78.97
23361;BME280;11852;50.082;18.554;2023-02-11T00:46:09;100221.5;;;-1.83;79.16
23361;BME280;11852;50.082;18.554;2023-02-11T00:47:20;100220.0;;;-1.79;79.07
23361;BME280;11852;50.082;18.554;2023-02-11T00:48:29;100220.5;;;-1.84;79.21
23361;BME280;11852;50.082;18.554;2023-02-11T00:49:36;100217.5;;;-1.76;78.99
23361;BME280;11852;50.082;18.554;2023-02-11T00:50:48;100215.0;;;-1.83;79.14
23361;BME280;11852;50.082;18.554;2023-02-11T00:51:56;100207.5;;;-1.85;79.17
23361;BME280;11852;50.082;18.554;2023-02-11T00:53:06;100203.5;;;-1.91;79.35
23361;BME280;11852;50.082;18.554;2023-02-11T00:54:18;100203.0;;;-1.96;79.57
23361;BME280;11852;50.082;18.554;2023-02-11T00:55:28;100195.49;;;-1.84;79.22
23361;BME280;11852;50.082;18.554;2023-02-11T00:56:36;100197.0;;;-1.95;79.6
23361;BME280;11852;50.082;18.554;2023-02-11T00:57:45;100193.5;;;-1.84;79.26
23361;BME280;11852;50.082;18.554;2023-02-11T00:58:54;100191.0;;;-1.88;79.37
23361;BME280;11852;50.082;18.554;2023-02-11T01:00:14;100187.5;;;-1.87;79.44
23361;BME280;11852;50.082;18.554;2023-02-11T01:01:27;100184.0;;;-1.85;79.29
23361;BME280;11852;50.082;18.554;2023-02-11T01:03:42;100170.49;;;-1.9;79.4
23361;BME280;11852;50.082;18.554;2023-02-11T01:04:49;100166.0;;;-1.87;79.28
23361;BME280;11852;50.082;18.554;2023-02-11T01:05:57;100167.0;;;-1.93;79.47
23361;BME280;11852;50.082;18.554;2023-02-11T01:07:07;100164.5;;;-1.9;79.42
23361;BME280;11852;50.082;18.554;2023-02-11T01:08:25;100159.0;;;-1.89;79.38
23361;BME280;11852;50.082;18.554;2023-02-11T01:09:32;100151.0;;;-1.95;79.54
23361;BME280;11852;50.082;18.554;2023-02-11T01:10:41;100147.0;;;-1.95;79.54
23361;BME280;11852;50.082;18.554;2023-02-11T01:11:49;100143.5;;;-1.93;79.5
23361;BME280;11852;50.082;18.554;2023-02-11T01:13:01;100137.5;;;-2.0;79.59
23361;BME280;11852;50.082;18.554;2023-02-11T01:14:08;100138.5;;;-1.92;79.35
23361;BME280;11852;50.082;18.554;2023-02-11T01:15:18;100131.99;;;-1.96;79.44
23361;BME280;11852;50.082;18.554;2023-02-11T01:16:24;100131.5;;;-1.91;79.28
23361;BME280;11852;50.082;18.554;2023-02-11T01:18:09;100129.0;;;-1.92;79.23
23361;BME280;11852;50.082;18.554;2023-02-11T01:19:17;100125.5;;;-1.97;79.29
23361;BME280;11852;50.082;18.554;2023-02-11T01:20:25;100119.0;;;-1.91;79.01
23361;BME280;11852;50.082;18.554;2023-02-11T01:21:36;100118.01;;;-1.99;79.29
23361;BME280;11852;50.082;18.554;2023-02-11T01:22:49;100117.5;;;-1.94;79.18
23361;BME280;11852;50.082;18.554;2023-02-11T01:23:56;100118.0;;;-1.9;78.94
23361;BME280;11852;50.082;18.554;2023-02-11T01:25:05;100114.5;;;-1.93;79.07
23361;BME280;11852;50.082;18.554;2023-02-11T01:26:20;100118.0;;;-2.02;79.2
23361;BME280;11852;50.082;18.554;2023-02-11T01:27:28;100118.0;;;-1.89;78.78
23361;BME280;11852;50.082;18.554;2023-02-11T01:28:37;100124.0;;;-1.79;78.37
23361;BME280;11852;50.082;18.554;2023-02-11T01:29:45;100127.5;;;-1.93;78.84
23361;BME280;11852;50.082;18.554;2023-02-11T01:31:11;100125.5;;;-1.98;78.86
23361;BME280;11852;50.082;18.554;2023-02-11T01:32:19;100126.0;;;-1.86;78.57
23361;BME280;11852;50.082;18.554;2023-02-11T01:33:31;100126.5;;;-1.99;78.89
23361;BME280;11852;50.082;18.554;2023-02-11T01:34:42;100124.5;;;-2.0;78.82
23361;BME280;11852;50.082;18.554;2023-02-11T01:35:50;100122.0;;;-1.97;78.75
23361;BME280;11852;50.082;18.554;2023-02-11T01:37:01;100123.0;;;-1.91;78.47
23361;BME280;11852;50.082;18.554;2023-02-11T01:38:13;100119.49;;;-1.79;78.06
23361;BME280;11852;50.082;18.554;2023-02-11T01:39:18;100112.5;;;-1.88;78.33
23361;BME280;11852;50.082;18.554;2023-02-11T01:40:28;100111.0;;;-1.9;78.4
23361;BME280;11852;50.082;18.554;2023-02-11T01:41:36;100113.0;;;-1.9;78.18
23361;BME280;11852;50.082;18.554;2023-02-11T01:42:54;100113.5;;;-1.78;77.87
23361;BME280;11852;50.082;18.554;2023-02-11T01:47:06;100108.5;;;-1.72;77.15
23361;BME280;11852;50.082;18.554;2023-02-11T01:48:14;100110.0;;;-1.75;77.26
23361;BME280;11852;50.082;18.554;2023-02-11T01:50:34;100104.0;;;-1.79;77.28
23361;BME280;11852;50.082;18.554;2023-02-11T01:51:54;100105.0;;;-1.73;76.9
23361;BME280;11852;50.082;18.554;2023-02-11T01:53:00;100104.0;;;-1.63;76.49
23361;BME280;11852;50.082;18.554;2023-02-11T01:54:17;100103.5;;;-1.7;76.76
23361;BME280;11852;50.082;18.554;2023-02-11T01:55:28;100101.0;;;-1.75;76.88
23361;BME280;11852;50.082;18.554;2023-02-11T01:56:43;100101.0;;;-1.57;76.36
23361;BME280;11852;50.082;18.554;2023-02-11T01:57:54;100098.5;;;-1.68;76.58
23361;BME280;11852;50.082;18.554;2023-02-11T02:01:31;100095.5;;;-1.69;76.45
23361;BME280;11852;50.082;18.554;2023-02-11T02:02:46;100096.5;;;-1.5;75.68
23361;BME280;11852;50.082;18.554;2023-02-11T02:03:52;100099.5;;;-1.46;75.67
23361;BME280;11852;50.082;18.554;2023-02-11T02:06:29;100097.0;;;-1.64;76.17
23361;BME280;11852;50.082;18.554;2023-02-11T02:07:38;100093.5;;;-1.63;76.25
23361;BME280;11852;50.082;18.554;2023-02-11T02:08:49;100090.0;;;-1.58;76.07
23361;BME280;11852;50.082;18.554;2023-02-11T02:09:57;100090.5;;;-1.52;75.88
23361;BME280;11852;50.082;18.554;2023-02-11T02:11:03;100085.5;;;-1.45;75.61
23361;BME280;11852;50.082;18.554;2023-02-11T02:12:11;100088.5;;;-1.43;75.54
23361;BME280;11852;50.082;18.554;2023-02-11T02:13:18;100087.5;;;-1.39;75.53
23361;BME280;11852;50.082;18.554;2023-02-11T02:14:26;100088.0;;;-1.4;75.54
23361;BME280;11852;50.082;18.554;2023-02-11T02:15:38;100084.0;;;-1.38;75.21
23361;BME280;11852;50.082;18.554;2023-02-11T02:16:44;100079.51;;;-1.43;75.41
23361;BME280;11852;50.082;18.554;2023-02-11T02:32:19;100007.49;;;-1.44;75.3
23361;BME280;11852;50.082;18.554;2023-02-11T02:34:50;100003.0;;;-1.41;74.88
23361;BME280;11852;50.082;18.554;2023-02-11T02:36:15;99995.49;;;-1.42;74.88
23361;BME280;11852;50.082;18.554;2023-02-11T02:40:03;99993.0;;;-1.32;74.33
23361;BME280;11852;50.082;18.554;2023-02-11T02:41:09;99991.0;;;-1.32;74.24
23361;BME280;11852;50.082;18.554;2023-02-11T02:42:17;99988.5;;;-1.25;73.94
23361;BME280;11852;50.082;18.554;2023-02-11T02:43:24;99988.0;;;-1.35;74.1
23361;BME280;11852;50.082;18.554;2023-02-11T02:44:32;99990.0;;;-1.29;74.0
23361;BME280;11852;50.082;18.554;2023-02-11T02:45:40;99986.0;;;-1.25;73.67
23361;BME280;11852;50.082;18.554;2023-02-11T02:46:57;99987.0;;;-1.11;73.31
23361;BME280;11852;50.082;18.554;2023-02-11T02:48:06;99990.0;;;-1.21;73.54
23361;BME280;11852;50.082;18.554;2023-02-11T02:49:14;99993.5;;;-1.13;73.34
23361;BME280;11852;50.082;18.554;2023-02-11T02:50:27;99997.5;;;-1.19;73.56
23361;BME280;11852;50.082;18.554;2023-02-11T02:51:44;99993.0;;;-1.22;73.57
23361;BME280;11852;50.082;18.554;2023-02-11T02:52:53;99990.5;;;-1.26;73.6
23361;BME280;11852;50.082;18.554;2023-02-11T03:01:23;99963.5;;;-1.26;73.46
23361;BME280;11852;50.082;18.554;2023-02-11T03:05:22;99963.5;;;-1.07;73.09
23361;BME280;11852;50.082;18.554;2023-02-11T03:06:37;99962.0;;;-1.25;73.67
23361;BME280;11852;50.082;18.554;2023-02-11T03:07:41;99966.5;;;-1.19;73.39
23361;BME280;11852;50.082;18.554;2023-02-11T03:08:49;99970.0;;;-1.16;73.16
23361;BME280;11852;50.082;18.554;2023-02-11T03:11:09;99973.5;;;-1.12;73.07
23361;BME280;11852;50.082;18.554;2023-02-11T03:12:17;99976.5;;;-1.14;72.99
23361;BME280;11852;50.082;18.554;2023-02-11T03:13:35;99971.5;;;-1.2;73.13
23361;BME280;11852;50.082;18.554;2023-02-11T03:14:48;99969.49;;;-1.18;73.1
23361;BME280;11852;50.082;18.554;2023-02-11T03:16:07;99961.5;;;-1.17;72.88
23361;BME280;11852;50.082;18.554;2023-02-11T03:17:11;99963.5;;;-1.14;72.96
23361;BME280;11852;50.082;18.554;2023-02-11T03:18:20;99968.5;;;-1.09;72.48
23361;BME280;11852;50.082;18.554;2023-02-11T03:19:33;99975.0;;;-1.14;72.68
23361;BME280;11852;50.082;18.554;2023-02-11T03:20:41;99975.5;;;-1.04;72.44
23361;BME280;11852;50.082;18.554;2023-02-11T03:21:48;99978.5;;;-1.13;72.71
23361;BME280;11852;50.082;18.554;2023-02-11T03:22:57;99980.0;;;-1.12;72.71
23361;BME280;11852;50.082;18.554;2023-02-11T03:24:13;99971.5;;;-1.18;72.85
23361;BME280;11852;50.082;18.554;2023-02-11T03:25:20;99969.5;;;-1.14;72.64
23361;BME280;11852;50.082;18.554;2023-02-11T03:26:29;99968.01;;;-1.16;72.74
23361;BME280;11852;50.082;18.554;2023-02-11T03:32:58;99975.5;;;-1.07;72.43
23361;BME280;11852;50.082;18.554;2023-02-11T03:34:08;99972.0;;;-1.03;72.21
23361;BME280;11852;50.082;18.554;2023-02-11T03:38:59;99969.0;;;-1.13;72.54
23361;BME280;11852;50.082;18.554;2023-02-11T03:41:20;99959.5;;;-1.15;72.84
23361;BME280;11852;50.082;18.554;2023-02-11T03:42:27;99961.5;;;-1.16;72.9
23361;BME280;11852;50.082;18.554;2023-02-11T03:43:43;99958.0;;;-1.24;73.18
23361;BME280;11852;50.082;18.554;2023-02-11T03:44:53;99956.5;;;-1.11;72.79
23361;BME280;11852;50.082;18.554;2023-02-11T03:46:02;99947.5;;;-1.3;73.49
23361;BME280;11852;50.082;18.554;2023-02-11T03:47:16;99945.49;;;-1.21;73.38
23361;BME280;11852;50.082;18.554;2023-02-11T03:48:27;99938.5;;;-1.29;73.63
23361;BME280;11852;50.082;18.554;2023-02-11T03:50:00;99932.99;;;-1.14;73.0
23361;BME280;11852;50.082;18.554;2023-02-11T03:51:09;99935.0;;;-1.07;72.76
23361;BME280;11852;50.082;18.554;2023-02-11T03:52:26;99931.99;;;-1.0;72.51
23361;BME280;11852;50.082;18.554;2023-02-11T03:53:35;99930.5;;;-1.07;72.68
23361;BME280;11852;50.082;18.554;2023-02-11T03:54:44;99929.51;;;-1.16;73.09
23361;BME280;11852;50.082;18.554;2023-02-11T03:55:58;99924.0;;;-1.18;73.04
23361;BME280;11852;50.082;18.554;2023-02-11T03:57:05;99916.0;;;-1.03;72.62
23361;BME280;11852;50.082;18.554;2023-02-11T03:58:12;99907.5;;;-1.0;72.67
23361;BME280;11852;50.082;18.554;2023-02-11T03:59:20;99899.0;;;-1.06;72.85
23361;BME280;11852;50.082;18.554;2023-02-11T04:00:30;99897.5;;;-1.05;72.71
23361;BME280;11852;50.082;18.554;2023-02-11T04:01:37;99895.49;;;-0.96;72.54
23361;BME280;11852;50.082;18.554;2023-02-11T04:02:45;99896.5;;;-1.06;73.0
23361;BME280;11852;50.082;18.554;2023-02-11T04:03:53;99899.5;;;-1.18;73.44
23361;BME280;11852;50.082;18.554;2023-02-11T04:05:02;99897.0;;;-1.05;73.04
23361;BME280;11852;50.082;18.554;2023-02-11T04:06:11;99900.0;;;-1.01;72.94
23361;BME280;11852;50.082;18.554;2023-02-11T04:07:24;99892.5;;;-1.03;73.02
23361;BME280;11852;50.082;18.554;2023-02-11T04:08:31;99888.0;;;-1.09;73.28
23361;BME280;11852;50.082;18.554;2023-02-11T04:09:40;99881.5;;;-1.14;73.6
23361;BME280;11852;50.082;18.554;2023-02-11T04:10:47;99877.0;;;-1.0;73.22
23361;BME280;11852;50.082;18.554;2023-02-11T04:11:57;99874.5;;;-1.05;73.44
23361;BME280;11852;50.082;18.554;2023-02-11T04:13:04;99875.0;;;-1.09;73.68
23361;BME280;11852;50.082;18.554;2023-02-11T04:14:15;99871.5;;;-1.02;73.54
23361;BME280;11852;50.082;18.554;2023-02-11T04:15:23;99871.5;;;-1.02;73.51
23361;BME280;11852;50.082;18.554;2023-02-11T04:16:37;99871.5;;;-0.98;73.43
23361;BME280;11852;50.082;18.554;2023-02-11T04:17:45;99871.0;;;-0.99;73.48
23361;BME280;11852;50.082;18.554;2023-02-11T04:18:52;99869.49;;;-1.05;73.77
23361;BME280;11852;50.082;18.554;2023-02-11T04:20:04;99871.5;;;-1.05;73.89
23361;BME280;11852;50.082;18.554;2023-02-11T04:21:11;99868.0;;;-1.05;73.85
23361;BME280;11852;50.082;18.554;2023-02-11T04:22:19;99864.0;;;-0.91;73.64
23361;BME280;11852;50.082;18.554;2023-02-11T04:23:27;99863.5;;;-0.9;73.63
23361;BME280;11852;50.082;18.554;2023-02-11T04:24:34;99856.0;;;-0.97;73.84
23361;BME280;11852;50.082;18.554;2023-02-11T04:25:42;99852.0;;;-1.02;74.07
23361;BME280;11852;50.082;18.554;2023-02-11T04:26:49;99850.0;;;-0.92;73.77
23361;BME280;11852;50.082;18.554;2023-02-11T04:28:01;99848.5;;;-0.91;73.82
23361;BME280;11852;50.082;18.554;2023-02-11T04:29:09;99849.5;;;-0.94;73.95
23361;BME280;11852;50.082;18.554;2023-02-11T04:30:18;99859.0;;;-0.89;73.96
23361;BME280;11852;50.082;18.554;2023-02-11T04:31:28;99856.0;;;-0.96;74.21
23361;BME280;11852;50.082;18.554;2023-02-11T04:32:35;99851.5;;;-0.93;74.25
23361;BME280;11852;50.082;18.554;2023-02-11T04:33:42;99851.5;;;-0.82;73.83
23361;BME280;11852;50.082;18.554;2023-02-11T04:34:52;99851.0;;;-0.75;73.64
23361;BME280;11852;50.082;18.554;2023-02-11T04:36:10;99851.0;;;-0.9;74.07
23361;BME280;11852;50.082;18.554;2023-02-11T04:37:23;99849.5;;;-0.92;74.13
23361;BME280;11852;50.082;18.554;2023-02-11T04:38:30;99847.0;;;-0.9;74.16
23361;BME280;11852;50.082;18.554;2023-02-11T04:39:38;99849.0;;;-0.9;74.24
23361;BME280;11852;50.082;18.554;2023-02-11T04:40:50;99851.0;;;-0.88;74.19
23361;BME280;11852;50.082;18.554;2023-02-11T04:41:57;99852.0;;;-0.94;74.35
23361;BME280;11852;50.082;18.554;2023-02-11T04:43:04;99853.0;;;-0.9;74.29
23361;BME280;11852;50.082;18.554;2023-02-11T04:44:13;99853.0;;;-0.9;74.37
23361;BME280;11852;50.082;18.554;2023-02-11T04:45:21;99851.5;;;-0.76;73.93
23361;BME280;11852;50.082;18.554;2023-02-11T04:46:28;99847.5;;;-0.73;73.79
23361;BME280;11852;50.082;18.554;2023-02-11T04:47:36;99848.5;;;-0.87;74.32
23361;BME280;11852;50.082;18.554;2023-02-11T04:48:44;99851.0;;;-0.83;74.05
23361;BME280;11852;50.082;18.554;2023-02-11T04:49:54;99852.5;;;-0.69;73.79
23361;BME280;11852;50.082;18.554;2023-02-11T04:51:12;99853.0;;;-0.77;74.12
23361;BME280;11852;50.082;18.554;2023-02-11T04:52:30;99855.5;;;-0.74;73.93
23361;BME280;11852;50.082;18.554;2023-02-11T04:53:40;99857.99;;;-0.81;74.23
23361;BME280;11852;50.082;18.554;2023-02-11T04:54:49;99861.5;;;-0.74;73.95
23361;BME280;11852;50.082;18.554;2023-02-11T04:56:07;99856.5;;;-0.77;74.17
23361;BME280;11852;50.082;18.554;2023-02-11T04:57:16;99852.5;;;-0.88;74.35
23361;BME280;11852;50.082;18.554;2023-02-11T04:58:24;99851.0;;;-0.75;73.97
23361;BME280;11852;50.082;18.554;2023-02-11T04:59:31;99850.0;;;-0.67;73.86
23361;BME280;11852;50.082;18.554;2023-02-11T05:00:39;99851.5;;;-0.69;74.0
23361;BME280;11852;50.082;18.554;2023-02-11T05:01:56;99856.99;;;-0.7;74.01
23361;BME280;11852;50.082;18.554;2023-02-11T05:03:04;99853.5;;;-0.77;74.16
23361;BME280;11852;50.082;18.554;2023-02-11T05:04:14;99854.51;;;-0.63;73.77
23361;BME280;11852;50.082;18.554;2023-02-11T05:05:28;99848.0;;;-0.69;73.89
23361;BME280;11852;50.082;18.554;2023-02-11T05:06:37;99844.0;;;-0.7;74.15
23361;BME280;11852;50.082;18.554;2023-02-11T05:07:47;99843.99;;;-0.65;73.98
23361;BME280;11852;50.082;18.554;2023-02-11T05:08:57;99839.0;;;-0.66;74.07
23361;BME280;11852;50.082;18.554;2023-02-11T05:10:02;99849.0;;;-0.7;74.29
23361;BME280;11852;50.082;18.554;2023-02-11T05:11:13;99849.0;;;-0.69;74.31
23361;BME280;11852;50.082;18.554;2023-02-11T05:12:17;99851.0;;;-0.72;74.4
23361;BME280;11852;50.082;18.554;2023-02-11T05:13:26;99850.5;;;-0.64;74.23
23361;BME280;11852;50.082;18.554;2023-02-11T05:14:42;99856.99;;;-0.68;74.3
23361;BME280;11852;50.082;18.554;2023-02-11T05:15:52;99860.5;;;-0.67;74.34
23361;BME280;11852;50.082;18.554;2023-02-11T05:17:00;99855.5;;;-0.68;74.32
23361;BME280;11852;50.082;18.554;2023-02-11T05:18:18;99856.0;;;-0.65;74.28
23361;BME280;11852;50.082;18.554;2023-02-11T05:19:26;99856.5;;;-0.47;73.78
23361;BME280;11852;50.082;18.554;2023-02-11T05:20:36;99856.5;;;-0.65;74.35
23361;BME280;11852;50.082;18.554;2023-02-11T05:22:51;99850.5;;;-0.66;74.46
23361;BME280;11852;50.082;18.554;2023-02-11T05:24:02;99851.0;;;-0.55;74.15
23361;BME280;11852;50.082;18.554;2023-02-11T05:25:11;99851.5;;;-0.47;74.02
23361;BME280;11852;50.082;18.554;2023-02-11T05:26:18;99854.5;;;-0.43;73.85
23361;BME280;11852;50.082;18.554;2023-02-11T05:27:34;99847.0;;;-0.55;74.08
23361;BME280;11852;50.082;18.554;2023-02-11T05:28:41;99843.5;;;-0.61;74.32
23361;BME280;11852;50.082;18.554;2023-02-11T05:29:49;99845.49;;;-0.55;74.19
23361;BME280;11852;50.082;18.554;2023-02-11T05:30:59;99835.0;;;-0.54;74.08
23361;BME280;11852;50.082;18.554;2023-02-11T05:32:07;99839.0;;;-0.59;74.32
23361;BME280;11852;50.082;18.554;2023-02-11T05:33:15;99836.5;;;-0.47;74.14
23361;BME280;11852;50.082;18.554;2023-02-11T05:34:22;99834.5;;;-0.5;74.24
23361;BME280;11852;50.082;18.554;2023-02-11T05:35:34;99835.0;;;-0.54;74.38
23361;BME280;11852;50.082;18.554;2023-02-11T05:36:45;99832.49;;;-0.33;73.83
23361;BME280;11852;50.082;18.554;2023-02-11T05:37:55;99833.5;;;-0.46;74.15
23361;BME280;11852;50.082;18.554;2023-02-11T05:39:17;99831.5;;;-0.53;74.4
23361;BME280;11852;50.082;18.554;2023-02-11T05:40:25;99829.0;;;-0.49;74.14
23361;BME280;11852;50.082;18.554;2023-02-11T05:41:32;99837.5;;;-0.51;74.31
23361;BME280;11852;50.082;18.554;2023-02-11T05:42:42;99840.5;;;-0.53;74.43
23361;BME280;11852;50.082;18.554;2023-02-11T05:43:49;99841.0;;;-0.47;74.2
23361;BME280;11852;50.082;18.554;2023-02-11T05:45:12;99848.5;;;-0.47;74.27
23361;BME280;11852;50.082;18.554;2023-02-11T05:46:21;99849.5;;;-0.46;74.06
23361;BME280;11852;50.082;18.554;2023-02-11T05:47:29;99849.5;;;-0.58;74.52
23361;BME280;11852;50.082;18.554;2023-02-11T05:48:44;99852.0;;;-0.48;74.21
23361;BME280;11852;50.082;18.554;2023-02-11T05:49:55;99850.5;;;-0.46;74.06
23361;BME280;11852;50.082;18.554;2023-02-11T05:51:02;99857.0;;;-0.35;73.74
23361;BME280;11852;50.082;18.554;2023-02-11T05:52:19;99855.51;;;-0.35;73.81
23361;BME280;11852;50.082;18.554;2023-02-11T05:53:26;99854.51;;;-0.5;74.14
23361;BME280;11852;50.082;18.554;2023-02-11T05:54:37;99856.5;;;-0.58;74.61
23361;BME280;11852;50.082;18.554;2023-02-11T05:55:50;99855.0;;;-0.59;74.42
23361;BME280;11852;50.082;18.554;2023-02-11T05:57:08;99861.5;;;-0.53;74.3
23361;BME280;11852;50.082;18.554;2023-02-11T05:58:16;99862.5;;;-0.55;74.42
23361;BME280;11852;50.082;18.554;2023-02-11T05:59:28;99864.0;;;-0.44;74.08
23361;BME280;11852;50.082;18.554;2023-02-11T06:00:35;99861.0;;;-0.37;73.9
23361;BME280;11852;50.082;18.554;2023-02-11T06:01:46;99862.5;;;-0.57;74.59
23361;BME280;11852;50.082;18.554;2023-02-11T06:02:58;99864.0;;;-0.44;74.14
23361;BME280;11852;50.082;18.554;2023-02-11T06:04:09;99863.5;;;-0.4;74.03
23361;BME280;11852;50.082;18.554;2023-02-11T06:05:13;99863.5;;;-0.49;74.41
23361;BME280;11852;50.082;18.554;2023-02-11T06:06:29;99858.5;;;-0.47;74.47
23361;BME280;11852;50.082;18.554;2023-02-11T06:07:41;99857.5;;;-0.41;74.26
23361;BME280;11852;50.082;18.554;2023-02-11T06:09:06;99860.5;;;-0.5;74.53
23361;BME280;11852;50.082;18.554;2023-02-11T06:10:16;99854.51;;;-0.45;74.43
23361;BME280;11852;50.082;18.554;2023-02-11T06:11:23;99855.01;;;-0.44;74.34
23361;BME280;11852;50.082;18.554;2023-02-11T06:12:31;99851.0;;;-0.41;74.3
23361;BME280;11852;50.082;18.554;2023-02-11T06:13:43;99846.0;;;-0.45;74.32
23361;BME280;11852;50.082;18.554;2023-02-11T06:14:50;99847.0;;;-0.44;74.35
23361;BME280;11852;50.082;18.554;2023-02-11T06:16:10;99845.49;;;-0.44;74.51
23361;BME280;11852;50.082;18.554;2023-02-11T06:17:22;99839.0;;;-0.58;74.8
23361;BME280;11852;50.082;18.554;2023-02-11T06:18:30;99842.01;;;-0.58;74.94
23361;BME280;11852;50.082;18.554;2023-02-11T06:19:36;99836.0;;;-0.6;75.04
23361;BME280;11852;50.082;18.554;2023-02-11T06:20:45;99829.51;;;-0.5;74.68
23361;BME280;11852;50.082;18.554;2023-02-11T06:21:57;99822.5;;;-0.49;74.68
23361;BME280;11852;50.082;18.554;2023-02-11T06:23:07;99819.0;;;-0.56;74.9
23361;BME280;11852;50.082;18.554;2023-02-11T06:24:15;99814.5;;;-0.58;75.01
23361;BME280;11852;50.082;18.554;2023-02-11T06:25:25;99813.5;;;-0.63;75.33
23361;BME280;11852;50.082;18.554;2023-02-11T06:26:29;99813.0;;;-0.53;75.05
23361;BME280;11852;50.082;18.554;2023-02-11T06:27:40;99814.0;;;-0.42;74.7
23361;BME280;11852;50.082;18.554;2023-02-11T06:28:50;99817.51;;;-0.38;74.6
23361;BME280;11852;50.082;18.554;2023-02-11T06:29:56;99812.5;;;-0.51;75.01
23361;BME280;11852;50.082;18.554;2023-02-11T06:31:06;99814.0;;;-0.46;74.84
23361;BME280;11852;50.082;18.554;2023-02-11T06:32:13;99814.5;;;-0.44;74.93
23361;BME280;11852;50.082;18.554;2023-02-11T06:33:20;99816.5;;;-0.31;74.61
23361;BME280;11852;50.082;18.554;2023-02-11T06:34:27;99816.5;;;-0.5;75.29
23361;BME280;11852;50.082;18.554;2023-02-11T06:35:47;99812.0;;;-0.39;74.97
23361;BME280;11852;50.082;18.554;2023-02-11T06:36:55;99810.0;;;-0.42;75.14
23361;BME280;11852;50.082;18.554;2023-02-11T06:38:12;99807.0;;;-0.48;75.18
23361;BME280;11852;50.082;18.554;2023-02-11T06:39:23;99807.49;;;-0.55;75.51
23361;BME280;11852;50.082;18.554;2023-02-11T06:40:30;99804.0;;;-0.51;75.45
23361;BME280;11852;50.082;18.554;2023-02-11T06:41:39;99801.5;;;-0.62;76.02
23361;BME280;11852;50.082;18.554;2023-02-11T06:42:47;99807.99;;;-0.56;75.83
23361;BME280;11852;50.082;18.554;2023-02-11T06:43:54;99812.0;;;-0.48;75.47
23361;BME280;11852;50.082;18.554;2023-02-11T06:45:19;99821.5;;;-0.49;75.49
23361;BME280;11852;50.082;18.554;2023-02-11T06:46:26;99819.0;;;-0.46;75.4
23361;BME280;11852;50.082;18.554;2023-02-11T06:47:34;99826.0;;;-0.28;74.82
23361;BME280;11852;50.082;18.554;2023-02-11T06:48:41;99829.51;;;-0.41;75.19
23361;BME280;11852;50.082;18.554;2023-02-11T06:49:48;99838.0;;;-0.38;75.1
23361;BME280;11852;50.082;18.554;2023-02-11T06:50:55;99834.5;;;-0.29;74.74
23361;BME280;11852;50.082;18.554;2023-02-11T06:52:02;99840.0;;;-0.38;75.13
23361;BME280;11852;50.082;18.554;2023-02-11T06:53:22;99831.0;;;-0.33;74.97
23361;BME280;11852;50.082;18.554;2023-02-11T06:54:39;99830.5;;;-0.3;74.9
23361;BME280;11852;50.082;18.554;2023-02-11T06:55:45;99834.5;;;-0.38;75.15
23361;BME280;11852;50.082;18.554;2023-02-11T06:57:11;99826.5;;;-0.34;75.1
23361;BME280;11852;50.082;18.554;2023-02-11T06:58:18;99824.0;;;-0.32;75.12
23361;BME280;11852;50.082;18.554;2023-02-11T06:59:25;99823.5;;;-0.35;75.28
23361;BME280;11852;50.082;18.554;2023-02-11T07:00:32;99824.0;;;-0.32;75.21
23361;BME280;11852;50.082;18.554;2023-02-11T07:02:21;99820.49;;;-0.27;74.99